createdAt,value
2023-04-27T00:00:32.326Z,18.73
2023-04-27T00:01:14.921Z,24.65
2023-04-27T00:01:48.236Z,28.17
2023-04-27T00:02:21.754Z,22.17
2023-04-27T00:02:55.340Z,22.23
2023-04-27T00:03:29.025Z,19.95
2023-04-27T00:04:05.159Z,26.33
2023-04-27T00:04:39.094Z,29.27
2023-04-27T00:05:14.223Z,29.15
2023-04-27T00:05:48.134Z,29.20
2023-04-27T00:06:21.833Z,37.95
2023-04-27T00:06:55.409Z,32.85
2023-04-27T00:07:28.794Z,34.63
2023-04-27T00:08:02.481Z,36.05
2023-04-27T00:08:35.760Z,28.67
2023-04-27T00:09:09.341Z,33.47
2023-04-27T00:09:42.316Z,47.15
2023-04-27T00:10:15.495Z,44.67
2023-04-27T00:10:48.569Z,53.47
2023-04-27T00:11:22.054Z,64.73
2023-04-27T00:11:56.151Z,55.17
2023-04-27T00:12:29.950Z,46.95
2023-04-27T00:13:03.028Z,53.13
2023-04-27T00:13:36.096Z,52.33
2023-04-27T00:14:09.387Z,51.13
2023-04-27T00:14:42.580Z,60.65
2023-04-27T00:15:15.734Z,63.35
2023-04-27T00:15:49.116Z,85.07
2023-04-27T00:16:22.512Z,88.40
2023-04-27T00:16:56.329Z,89.87
2023-04-27T00:17:29.600Z,84.55
2023-04-27T00:18:03.066Z,55.15
2023-04-27T00:18:37.255Z,54.33
2023-04-27T00:19:10.649Z,41.80
2023-04-27T00:19:44.001Z,26.15
2023-04-27T00:20:17.305Z,21.33
2023-04-27T00:20:50.704Z,17.42
2023-04-27T00:21:23.867Z,22.83
2023-04-27T00:21:58.479Z,17.15
2023-04-27T00:22:31.673Z,23.63
2023-04-27T00:23:05.157Z,25.90
2023-04-27T00:23:38.636Z,36.25
2023-04-27T00:24:11.907Z,33.70
2023-04-27T00:24:45.277Z,36.45
2023-04-27T00:25:18.682Z,47.42
2023-04-27T00:25:51.953Z,64.95
2023-04-27T00:26:25.430Z,64.43
2023-04-27T00:26:59.631Z,80.53
2023-04-27T00:27:33.021Z,74.25
2023-04-27T00:28:06.825Z,73.37
2023-04-27T00:28:40.140Z,63.55
2023-04-27T00:29:13.917Z,68.97
2023-04-27T00:29:47.383Z,71.10
2023-04-27T00:30:20.548Z,69.63
2023-04-27T00:30:55.159Z,60.88
2023-04-27T00:31:28.348Z,58.13
2023-04-27T00:32:02.583Z,52.75
2023-04-27T00:32:35.957Z,56.40
2023-04-27T00:33:09.312Z,54.97
2023-04-27T00:33:42.906Z,52.03
2023-04-27T00:34:16.380Z,51.05
2023-04-27T00:34:49.461Z,50.97
2023-04-27T00:35:23.141Z,44.55
2023-04-27T00:35:59.698Z,47.15
2023-04-27T00:36:34.308Z,44.38
2023-04-27T00:37:07.897Z,44.85
2023-04-27T00:37:41.087Z,44.75
2023-04-27T00:38:14.143Z,53.72
2023-04-27T00:38:47.425Z,100.78
2023-04-27T00:39:20.810Z,137.17
2023-04-27T00:39:54.094Z,154.60
2023-04-27T00:40:27.374Z,164.77
2023-04-27T00:41:07.645Z,157.77
2023-04-27T00:41:41.114Z,164.35
2023-04-27T00:42:17.760Z,156.57
2023-04-27T00:42:50.938Z,130.77
2023-04-27T00:43:24.124Z,123.05
2023-04-27T00:43:57.396Z,124.70
2023-04-27T00:44:30.680Z,122.75
2023-04-27T00:45:05.495Z,128.77
2023-04-27T00:45:43.698Z,124.40
2023-04-27T00:46:18.258Z,123.35
2023-04-27T00:46:52.502Z,140.38
2023-04-27T00:47:26.515Z,148.48
2023-04-27T00:48:00.165Z,149.43
2023-04-27T00:48:33.675Z,148.45
2023-04-27T00:49:07.055Z,142.65
2023-04-27T00:49:40.644Z,189.05
2023-04-27T00:50:14.532Z,238.52
2023-04-27T00:50:48.220Z,229.70
2023-04-27T00:51:21.518Z,142.27
2023-04-27T00:51:56.835Z,109.65
2023-04-27T00:52:30.009Z,162.88
2023-04-27T00:53:03.392Z,294.15
2023-04-27T00:53:37.086Z,262.08
2023-04-27T00:54:11.692Z,224.55
2023-04-27T00:54:45.492Z,200.45
2023-04-27T00:55:19.520Z,149.95
2023-04-27T00:55:53.072Z,126.18
2023-04-27T00:56:26.564Z,109.80
2023-04-27T00:57:01.485Z,126.57
2023-04-27T00:57:34.862Z,105.85
2023-04-27T00:58:09.173Z,83.15
2023-04-27T00:58:42.441Z,82.38
2023-04-27T00:59:16.336Z,79.05
2023-04-27T00:59:49.623Z,119.18
2023-04-27T01:00:22.894Z,111.82
2023-04-27T01:00:56.939Z,152.90
2023-04-27T01:01:33.492Z,230.30
2023-04-27T01:02:06.841Z,161.80
2023-04-27T01:02:40.851Z,129.57
2023-04-27T01:03:14.382Z,88.95
2023-04-27T01:03:48.705Z,73.22
2023-04-27T01:04:22.753Z,52.15
2023-04-27T01:04:57.940Z,35.83
2023-04-27T01:05:32.609Z,32.55
2023-04-27T01:06:06.248Z,35.60
2023-04-27T01:06:42.611Z,28.40
2023-04-27T01:07:15.772Z,23.55
2023-04-27T01:07:49.050Z,29.87
2023-04-27T01:08:22.336Z,23.80
2023-04-27T01:08:55.918Z,30.75
2023-04-27T01:09:29.624Z,27.27
2023-04-27T01:10:03.646Z,23.33
2023-04-27T01:10:38.126Z,21.70
2023-04-27T01:11:11.401Z,27.55
2023-04-27T01:11:45.604Z,21.35
2023-04-27T01:12:18.984Z,22.48
2023-04-27T01:12:52.278Z,24.00
2023-04-27T01:13:25.541Z,21.60
2023-04-27T01:13:58.985Z,21.13
2023-04-27T01:14:32.205Z,22.70
2023-04-27T01:15:07.024Z,22.10
2023-04-27T01:15:39.993Z,19.52
2023-04-27T01:16:18.010Z,18.90
2023-04-27T01:16:52.402Z,18.60
2023-04-27T01:17:25.818Z,19.15
2023-04-27T01:17:59.871Z,18.15
2023-04-27T01:18:35.714Z,18.17
2023-04-27T01:19:09.295Z,17.00
2023-04-27T01:19:42.789Z,18.02
2023-04-27T01:20:16.372Z,17.50
2023-04-27T01:20:50.267Z,18.05
2023-04-27T01:21:23.242Z,18.35
2023-04-27T01:21:57.649Z,18.30
2023-04-27T01:22:31.551Z,16.50
2023-04-27T01:23:04.819Z,16.15
2023-04-27T01:23:38.713Z,16.88
2023-04-27T01:24:12.100Z,16.00
2023-04-27T01:24:45.175Z,18.27
2023-04-27T01:25:18.457Z,15.82
2023-04-27T01:25:51.629Z,15.65
2023-04-27T01:26:27.380Z,15.93
2023-04-27T01:27:00.643Z,16.00
2023-04-27T01:27:33.724Z,17.33
2023-04-27T01:28:07.104Z,15.80
2023-04-27T01:28:40.182Z,15.35
2023-04-27T01:29:13.759Z,14.27
2023-04-27T01:29:47.787Z,13.75
2023-04-27T01:30:21.247Z,14.80
2023-04-27T01:30:54.439Z,15.57
2023-04-27T01:31:32.120Z,15.70
2023-04-27T01:32:05.494Z,15.07
2023-04-27T01:32:39.578Z,12.18
2023-04-27T01:33:12.669Z,18.05
2023-04-27T01:33:46.373Z,13.63
2023-04-27T01:34:20.771Z,15.93
2023-04-27T01:34:54.246Z,15.50
2023-04-27T01:35:31.027Z,14.65
2023-04-27T01:36:06.757Z,13.67
2023-04-27T01:36:40.031Z,13.55
2023-04-27T01:37:13.208Z,15.10
2023-04-27T01:37:46.492Z,15.77
2023-04-27T01:38:19.806Z,14.57
2023-04-27T01:38:53.558Z,17.33
2023-04-27T01:39:26.943Z,15.50
2023-04-27T01:40:00.019Z,15.18
2023-04-27T01:40:34.844Z,23.70
2023-04-27T01:41:09.654Z,93.63
2023-04-27T01:41:42.933Z,70.03
2023-04-27T01:42:16.126Z,69.65
2023-04-27T01:42:49.291Z,57.17
2023-04-27T01:43:22.462Z,34.25
2023-04-27T01:43:55.950Z,40.67
2023-04-27T01:44:29.340Z,30.20
2023-04-27T01:45:02.528Z,26.42
2023-04-27T01:45:38.151Z,26.25
2023-04-27T01:46:12.782Z,24.25
2023-04-27T01:46:46.613Z,27.58
2023-04-27T01:47:20.038Z,27.17
2023-04-27T01:47:54.059Z,34.58
2023-04-27T01:48:27.418Z,24.73
2023-04-27T01:49:00.908Z,31.25
2023-04-27T01:49:34.498Z,24.40
2023-04-27T01:50:08.108Z,24.23
2023-04-27T01:50:41.459Z,26.90
2023-04-27T01:51:15.662Z,24.20
2023-04-27T01:51:51.907Z,22.27
2023-04-27T01:52:24.989Z,19.13
2023-04-27T01:52:58.065Z,18.97
2023-04-27T01:53:31.342Z,15.93
2023-04-27T01:54:04.620Z,14.20
2023-04-27T01:54:37.802Z,17.20
2023-04-27T01:55:12.615Z,13.52
2023-04-27T01:55:45.694Z,13.75
2023-04-27T01:56:18.972Z,15.70
2023-04-27T01:56:51.943Z,17.23
2023-04-27T01:57:25.840Z,15.73
2023-04-27T01:57:59.025Z,14.10
2023-04-27T01:58:32.605Z,16.17
2023-04-27T01:59:06.088Z,19.38
2023-04-27T01:59:39.267Z,17.60
2023-04-27T02:00:13.370Z,24.00
2023-04-27T02:00:55.660Z,21.73
2023-04-27T02:01:28.897Z,19.60
2023-04-27T02:02:02.317Z,20.90
2023-04-27T02:02:36.162Z,54.47
2023-04-27T02:03:09.705Z,41.38
2023-04-27T02:03:43.578Z,17.95
2023-04-27T02:04:18.614Z,21.13
2023-04-27T02:04:52.054Z,17.48
2023-04-27T02:05:25.485Z,15.05
2023-04-27T02:05:59.892Z,17.35
2023-04-27T02:06:33.278Z,15.05
2023-04-27T02:07:07.063Z,13.90
2023-04-27T02:07:41.175Z,15.25
2023-04-27T02:08:14.467Z,15.27
2023-04-27T02:08:47.621Z,16.40
2023-04-27T02:09:20.705Z,12.80
2023-04-27T02:09:54.083Z,14.30
2023-04-27T02:10:27.667Z,14.45
2023-04-27T02:11:04.431Z,13.60
2023-04-27T02:11:37.608Z,13.13
2023-04-27T02:12:10.788Z,12.75
2023-04-27T02:12:43.862Z,14.40
2023-04-27T02:13:17.038Z,15.18
2023-04-27T02:13:50.119Z,13.75
2023-04-27T02:14:23.401Z,15.55
2023-04-27T02:14:56.372Z,12.80
2023-04-27T02:15:30.156Z,14.20
2023-04-27T02:16:05.361Z,13.88
2023-04-27T02:16:38.492Z,13.43
2023-04-27T02:17:11.769Z,14.30
2023-04-27T02:17:46.704Z,13.32
2023-04-27T02:18:20.566Z,16.77
2023-04-27T02:18:54.346Z,14.57
2023-04-27T02:19:28.141Z,15.00
2023-04-27T02:20:01.416Z,14.27
2023-04-27T02:20:34.392Z,11.85
2023-04-27T02:21:11.469Z,12.17
2023-04-27T02:21:44.734Z,13.65
2023-04-27T02:22:18.020Z,13.23
2023-04-27T02:22:51.093Z,12.82
2023-04-27T02:23:24.076Z,13.13
2023-04-27T02:23:57.141Z,12.40
2023-04-27T02:24:30.728Z,15.00
2023-04-27T02:25:03.807Z,15.73
2023-04-27T02:25:37.910Z,14.68
2023-04-27T02:26:20.830Z,12.07
2023-04-27T02:26:54.089Z,13.70
2023-04-27T02:27:27.379Z,13.18
2023-04-27T02:28:01.505Z,18.73
2023-04-27T02:28:35.160Z,22.73
2023-04-27T02:29:08.747Z,34.35
2023-04-27T02:29:42.745Z,42.85
2023-04-27T02:30:16.635Z,43.03
2023-04-27T02:30:50.328Z,45.45
2023-04-27T02:31:24.064Z,55.95
2023-04-27T02:31:57.449Z,46.05
2023-04-27T02:32:30.630Z,44.90
2023-04-27T02:33:05.443Z,28.23
2023-04-27T02:33:38.571Z,24.35
2023-04-27T02:34:11.953Z,29.65
2023-04-27T02:34:45.142Z,30.15
2023-04-27T02:35:18.412Z,29.70
2023-04-27T02:35:51.579Z,24.67
2023-04-27T02:36:25.290Z,25.92
2023-04-27T02:37:01.323Z,24.25
2023-04-27T02:37:34.808Z,23.23
2023-04-27T02:38:08.101Z,20.67
2023-04-27T02:38:43.733Z,16.77
2023-04-27T02:39:17.006Z,15.50
2023-04-27T02:39:49.985Z,16.83
2023-04-27T02:40:23.054Z,18.38
2023-04-27T02:40:56.443Z,16.88
2023-04-27T02:41:32.396Z,15.02
2023-04-27T02:42:05.765Z,19.23
2023-04-27T02:42:39.458Z,14.75
2023-04-27T02:43:12.831Z,13.80
2023-04-27T02:43:47.442Z,13.43
2023-04-27T02:44:20.633Z,12.45
2023-04-27T02:44:53.903Z,13.60
2023-04-27T02:45:27.182Z,15.50
2023-04-27T02:46:06.708Z,15.38
2023-04-27T02:46:39.810Z,14.40
2023-04-27T02:47:13.070Z,15.20
2023-04-27T02:47:48.558Z,14.70
2023-04-27T02:48:21.673Z,14.63
2023-04-27T02:48:55.775Z,21.98
2023-04-27T02:49:29.664Z,30.40
2023-04-27T02:50:03.359Z,30.10
2023-04-27T02:50:44.218Z,54.13
2023-04-27T02:51:17.601Z,55.97
2023-04-27T02:51:50.888Z,57.08
2023-04-27T02:52:24.156Z,51.70
2023-04-27T02:52:57.748Z,40.65
2023-04-27T02:53:31.029Z,38.65
2023-04-27T02:54:04.312Z,30.05
2023-04-27T02:54:37.590Z,28.02
2023-04-27T02:55:10.870Z,24.63
2023-04-27T02:55:50.491Z,22.02
2023-04-27T02:56:23.990Z,19.73
2023-04-27T02:56:57.672Z,18.25
2023-04-27T02:57:31.156Z,17.55
2023-04-27T02:58:04.337Z,17.77
2023-04-27T02:58:37.821Z,13.75
2023-04-27T02:59:11.228Z,14.40
2023-04-27T02:59:44.593Z,16.55
2023-04-27T03:00:17.860Z,13.73
2023-04-27T03:00:57.148Z,14.00
2023-04-27T03:01:30.182Z,12.60
2023-04-27T03:02:03.538Z,11.75
2023-04-27T03:02:36.924Z,14.23
2023-04-27T03:03:10.713Z,13.88
2023-04-27T03:03:48.194Z,15.68
2023-04-27T03:04:21.858Z,12.38
2023-04-27T03:04:55.777Z,13.15
2023-04-27T03:05:32.244Z,12.70
2023-04-27T03:06:05.512Z,14.05
2023-04-27T03:06:38.692Z,12.33
2023-04-27T03:07:13.010Z,15.20
2023-04-27T03:07:46.276Z,12.25
2023-04-27T03:08:19.478Z,14.02
2023-04-27T03:08:52.632Z,14.05
2023-04-27T03:09:26.018Z,12.35
2023-04-27T03:09:59.400Z,13.98
2023-04-27T03:10:32.366Z,12.07
2023-04-27T03:11:06.473Z,12.35
2023-04-27T03:11:42.823Z,12.10
2023-04-27T03:12:16.099Z,12.80
2023-04-27T03:12:49.173Z,12.90
2023-04-27T03:13:22.969Z,11.80
2023-04-27T03:13:56.764Z,12.82
2023-04-27T03:14:30.241Z,16.67
2023-04-27T03:15:04.750Z,13.05
2023-04-27T03:15:38.031Z,12.15
2023-04-27T03:16:14.306Z,13.85
2023-04-27T03:16:47.639Z,13.35
2023-04-27T03:17:21.252Z,13.02
2023-04-27T03:17:54.359Z,14.97
2023-04-27T03:18:27.815Z,15.43
2023-04-27T03:19:02.012Z,14.10
2023-04-27T03:19:36.850Z,15.70
2023-04-27T03:20:10.928Z,14.60
2023-04-27T03:20:45.031Z,14.32
2023-04-27T03:21:18.620Z,14.50
2023-04-27T03:21:55.283Z,13.45
2023-04-27T03:22:28.265Z,15.82
2023-04-27T03:23:01.950Z,12.60
2023-04-27T03:23:35.937Z,15.07
2023-04-27T03:24:09.011Z,13.68
2023-04-27T03:24:42.089Z,13.68
2023-04-27T03:25:16.088Z,12.27
2023-04-27T03:25:49.981Z,14.00
2023-04-27T03:26:23.161Z,13.15
2023-04-27T03:26:56.537Z,12.30
2023-04-27T03:27:30.045Z,13.82
2023-04-27T03:28:03.506Z,13.43
2023-04-27T03:28:36.993Z,14.88
2023-04-27T03:29:10.686Z,13.00
2023-04-27T03:29:43.861Z,12.07
2023-04-27T03:30:17.754Z,13.20
2023-04-27T03:30:51.144Z,15.52
2023-04-27T03:31:24.462Z,13.75
2023-04-27T03:31:58.069Z,13.00
2023-04-27T03:32:31.504Z,13.45
2023-04-27T03:33:07.326Z,13.70
2023-04-27T03:33:40.812Z,13.07
2023-04-27T03:34:13.998Z,13.95
2023-04-27T03:34:47.378Z,12.70
2023-04-27T03:35:20.676Z,12.93
2023-04-27T03:35:57.850Z,13.40
2023-04-27T03:36:32.551Z,13.00
2023-04-27T03:37:06.743Z,14.13
2023-04-27T03:37:43.097Z,14.70
2023-04-27T03:38:16.278Z,14.18
2023-04-27T03:38:49.452Z,13.07
2023-04-27T03:39:23.245Z,12.20
2023-04-27T03:39:56.523Z,11.45
2023-04-27T03:40:29.803Z,16.80
2023-04-27T03:41:04.722Z,14.18
2023-04-27T03:41:37.796Z,15.20
2023-04-27T03:42:10.879Z,25.20
2023-04-27T03:42:44.057Z,24.70
2023-04-27T03:43:17.332Z,24.40
2023-04-27T03:43:53.280Z,17.40
2023-04-27T03:44:26.570Z,20.67
2023-04-27T03:44:59.745Z,23.73
2023-04-27T03:45:33.013Z,20.65
2023-04-27T03:46:06.170Z,22.23
2023-04-27T03:46:39.472Z,19.48
2023-04-27T03:47:12.758Z,18.65
2023-04-27T03:47:46.777Z,18.45
2023-04-27T03:48:21.256Z,14.18
2023-04-27T03:48:55.154Z,13.57
2023-04-27T03:49:28.535Z,15.10
2023-04-27T03:50:02.331Z,13.55
2023-04-27T03:50:36.015Z,11.43
2023-04-27T03:51:09.293Z,13.65
2023-04-27T03:51:43.189Z,12.80
2023-04-27T03:52:16.471Z,13.73
2023-04-27T03:52:49.760Z,13.27
2023-04-27T03:53:22.836Z,15.02
2023-04-27T03:53:57.435Z,12.40
2023-04-27T03:54:33.619Z,14.68
2023-04-27T03:55:07.584Z,11.40
2023-04-27T03:55:41.689Z,12.73
2023-04-27T03:56:15.472Z,12.63
2023-04-27T03:56:48.451Z,16.30
2023-04-27T03:57:22.036Z,13.37
2023-04-27T03:57:56.036Z,11.60
2023-04-27T03:58:29.114Z,12.50
2023-04-27T03:59:30.341Z,12.55
2023-04-27T04:00:07.415Z,17.30
2023-04-27T04:00:45.814Z,18.67
2023-04-27T04:01:19.405Z,19.67
2023-04-27T04:01:53.015Z,19.92
2023-04-27T04:02:26.458Z,18.85
2023-04-27T04:03:00.026Z,18.60
2023-04-27T04:03:34.189Z,14.80
2023-04-27T04:04:07.691Z,17.75
2023-04-27T04:04:41.492Z,19.10
2023-04-27T04:05:18.012Z,21.48
2023-04-27T04:05:51.269Z,24.30
2023-04-27T04:06:24.857Z,21.10
2023-04-27T04:06:58.135Z,18.50
2023-04-27T04:07:31.529Z,15.68
2023-04-27T04:08:05.011Z,12.68
2023-04-27T04:08:38.190Z,17.60
2023-04-27T04:09:11.867Z,12.13
2023-04-27T04:09:46.283Z,13.43
2023-04-27T04:10:19.579Z,14.63
2023-04-27T04:10:54.789Z,13.98
2023-04-27T04:11:27.977Z,16.77
2023-04-27T04:12:04.318Z,11.85
2023-04-27T04:12:37.725Z,11.70
2023-04-27T04:13:10.983Z,12.23
2023-04-27T04:13:44.876Z,13.75
2023-04-27T04:14:18.156Z,12.10
2023-04-27T04:14:51.950Z,14.90
2023-04-27T04:15:25.126Z,12.95
2023-04-27T04:16:08.219Z,12.57
2023-04-27T04:16:41.540Z,13.32
2023-04-27T04:17:14.998Z,13.75
2023-04-27T04:17:49.873Z,13.27
2023-04-27T04:18:24.534Z,14.05
2023-04-27T04:18:57.813Z,12.68
2023-04-27T04:19:31.088Z,11.93
2023-04-27T04:20:09.305Z,11.95
2023-04-27T04:20:42.465Z,12.83
2023-04-27T04:21:15.542Z,13.90
2023-04-27T04:21:48.927Z,13.98
2023-04-27T04:22:22.512Z,13.68
2023-04-27T04:22:55.997Z,12.35
2023-04-27T04:23:29.171Z,13.43
2023-04-27T04:24:02.264Z,15.20
2023-04-27T04:24:35.324Z,13.88
2023-04-27T04:25:09.218Z,12.65
2023-04-27T04:25:42.294Z,12.35
2023-04-27T04:26:15.879Z,14.93
2023-04-27T04:26:49.056Z,13.75
2023-04-27T04:27:22.029Z,14.15
2023-04-27T04:27:54.914Z,14.93
2023-04-27T04:28:27.982Z,12.25
2023-04-27T04:29:01.679Z,13.82
2023-04-27T04:29:34.947Z,14.30
2023-04-27T04:30:09.046Z,12.35
2023-04-27T04:30:44.073Z,13.20
2023-04-27T04:31:18.727Z,17.17
2023-04-27T04:31:52.531Z,15.10
2023-04-27T04:32:28.955Z,13.23
2023-04-27T04:33:02.343Z,12.68
2023-04-27T04:33:35.515Z,16.10
2023-04-27T04:34:08.971Z,13.10
2023-04-27T04:34:42.253Z,13.88
2023-04-27T04:35:16.574Z,14.48
2023-04-27T04:35:50.040Z,13.82
2023-04-27T04:36:25.161Z,15.20
2023-04-27T04:37:00.813Z,13.02
2023-04-27T04:37:36.028Z,13.93
2023-04-27T04:38:09.615Z,15.43
2023-04-27T04:38:42.688Z,13.18
2023-04-27T04:39:16.342Z,14.32
2023-04-27T04:39:49.757Z,12.45
2023-04-27T04:40:22.845Z,14.23
2023-04-27T04:40:55.908Z,16.02
2023-04-27T04:41:29.293Z,14.35
2023-04-27T04:42:04.620Z,14.15
2023-04-27T04:42:39.136Z,16.63
2023-04-27T04:43:14.562Z,12.80
2023-04-27T04:43:49.886Z,15.38
2023-04-27T04:44:24.094Z,11.90
2023-04-27T04:44:57.675Z,14.27
2023-04-27T04:45:30.956Z,17.10
2023-04-27T04:46:04.480Z,15.05
2023-04-27T04:46:37.986Z,14.00
2023-04-27T04:47:11.616Z,13.68
2023-04-27T04:47:44.955Z,19.52
2023-04-27T04:48:20.363Z,14.82
2023-04-27T04:48:54.934Z,15.00
2023-04-27T04:49:28.117Z,16.35
2023-04-27T04:50:01.606Z,16.23
2023-04-27T04:50:39.817Z,22.13
2023-04-27T04:51:12.977Z,21.30
2023-04-27T04:51:46.256Z,18.77
2023-04-27T04:52:19.331Z,18.77
2023-04-27T04:52:52.813Z,17.45
2023-04-27T04:53:26.606Z,19.00
2023-04-27T04:54:02.270Z,15.27
2023-04-27T04:54:35.524Z,16.43
2023-04-27T04:55:08.906Z,19.20
2023-04-27T04:55:42.096Z,18.92
2023-04-27T04:56:17.518Z,15.00
2023-04-27T04:56:51.003Z,14.65
2023-04-27T04:57:24.903Z,15.15
2023-04-27T04:57:59.197Z,12.27
2023-04-27T04:58:34.526Z,16.13
2023-04-27T04:59:07.811Z,13.57
2023-04-27T04:59:41.501Z,16.48
2023-04-27T05:00:14.983Z,18.70
2023-04-27T05:00:48.265Z,15.15
2023-04-27T05:01:21.703Z,16.30
2023-04-27T05:01:56.416Z,16.42
2023-04-27T05:02:30.058Z,17.63
2023-04-27T05:03:03.682Z,13.05
2023-04-27T05:03:37.481Z,15.27
2023-04-27T05:04:11.644Z,14.65
2023-04-27T05:04:45.063Z,15.38
2023-04-27T05:05:18.706Z,14.15
2023-04-27T05:05:52.082Z,14.17
2023-04-27T05:06:25.061Z,14.50
2023-04-27T05:06:58.133Z,14.10
2023-04-27T05:07:31.513Z,16.38
2023-04-27T05:08:04.796Z,16.27
2023-04-27T05:08:37.871Z,15.75
2023-04-27T05:09:11.455Z,13.55
2023-04-27T05:09:44.945Z,15.23
2023-04-27T05:10:18.221Z,15.85
2023-04-27T05:10:55.194Z,18.33
2023-04-27T05:11:28.364Z,14.50
2023-04-27T05:12:02.467Z,16.33
2023-04-27T05:12:35.745Z,16.13
2023-04-27T05:13:08.824Z,14.75
2023-04-27T05:13:42.205Z,14.23
2023-04-27T05:14:15.588Z,16.73
2023-04-27T05:14:48.970Z,15.80
2023-04-27T05:15:22.156Z,14.82
2023-04-27T05:15:55.551Z,14.02
2023-04-27T05:16:29.041Z,14.52
2023-04-27T05:17:02.296Z,13.57
2023-04-27T05:17:35.407Z,14.52
2023-04-27T05:18:08.787Z,15.57
2023-04-27T05:18:42.252Z,13.23
2023-04-27T05:19:18.796Z,15.30
2023-04-27T05:19:52.180Z,15.32
2023-04-27T05:20:25.358Z,14.88
2023-04-27T05:20:58.644Z,12.88
2023-04-27T05:21:32.733Z,13.68
2023-04-27T05:22:06.335Z,15.40
2023-04-27T05:22:39.297Z,16.23
2023-04-27T05:23:12.676Z,14.07
2023-04-27T05:23:45.854Z,16.85
2023-04-27T05:24:19.244Z,16.60
2023-04-27T05:24:52.626Z,14.27
2023-04-27T05:25:25.908Z,13.75
2023-04-27T05:25:59.077Z,15.57
2023-04-27T05:26:32.156Z,15.45
2023-04-27T05:27:05.432Z,16.48
2023-04-27T05:27:38.620Z,16.63
2023-04-27T05:28:11.924Z,15.70
2023-04-27T05:28:45.584Z,16.08
2023-04-27T05:29:18.865Z,15.13
2023-04-27T05:29:52.247Z,18.00
2023-04-27T05:30:25.428Z,14.77
2023-04-27T05:30:58.824Z,14.98
2023-04-27T05:31:32.021Z,16.75
2023-04-27T05:32:05.496Z,15.55
2023-04-27T05:32:39.070Z,15.50
2023-04-27T05:33:12.372Z,15.38
2023-04-27T05:33:45.619Z,15.80
2023-04-27T05:34:18.892Z,16.98
2023-04-27T05:34:51.972Z,15.40
2023-04-27T05:35:25.051Z,17.58
2023-04-27T05:35:59.046Z,16.55
2023-04-27T05:36:32.735Z,15.45
2023-04-27T05:37:06.530Z,15.98
2023-04-27T05:37:40.421Z,16.48
2023-04-27T05:38:18.107Z,15.23
2023-04-27T05:38:51.375Z,17.52
2023-04-27T05:39:24.671Z,16.63
2023-04-27T05:39:57.843Z,19.30
2023-04-27T05:40:31.126Z,16.05
2023-04-27T05:41:04.303Z,14.90
2023-04-27T05:41:37.710Z,19.45
2023-04-27T05:42:11.074Z,17.88
2023-04-27T05:42:46.598Z,19.75
2023-04-27T05:43:19.891Z,16.58
2023-04-27T05:43:54.082Z,17.00
2023-04-27T05:44:29.826Z,18.02
2023-04-27T05:45:04.024Z,15.53
2023-04-27T05:45:39.780Z,14.85
2023-04-27T05:46:16.182Z,14.65
2023-04-27T05:46:49.395Z,16.92
2023-04-27T05:47:23.237Z,14.88
2023-04-27T05:47:56.616Z,16.20
2023-04-27T05:48:29.848Z,16.90
2023-04-27T05:49:03.334Z,16.52
2023-04-27T05:49:37.854Z,17.38
2023-04-27T05:50:11.229Z,17.85
2023-04-27T05:50:44.606Z,17.93
2023-04-27T05:51:18.092Z,17.98
2023-04-27T05:51:52.291Z,17.10
2023-04-27T05:52:31.360Z,17.52
2023-04-27T05:53:06.130Z,15.40
2023-04-27T05:53:39.609Z,17.83
2023-04-27T05:54:12.788Z,16.58
2023-04-27T05:54:49.138Z,13.65
2023-04-27T05:55:22.728Z,16.10
2023-04-27T05:55:56.109Z,15.95
2023-04-27T05:56:29.388Z,15.93
2023-04-27T05:57:02.573Z,14.27
2023-04-27T05:57:35.880Z,16.33
2023-04-27T05:58:09.596Z,16.30
2023-04-27T05:58:43.133Z,14.32
2023-04-27T05:59:16.755Z,17.10
2023-04-27T05:59:49.891Z,17.17
2023-04-27T06:00:23.275Z,14.48
2023-04-27T06:00:57.815Z,15.13
2023-04-27T06:01:31.269Z,14.35
2023-04-27T06:02:04.360Z,14.90
2023-04-27T06:02:37.715Z,14.63
2023-04-27T06:03:11.323Z,16.00
2023-04-27T06:03:45.132Z,14.48
2023-04-27T06:04:18.714Z,14.70
2023-04-27T06:04:52.256Z,15.65
2023-04-27T06:05:25.301Z,17.58
2023-04-27T06:05:59.217Z,17.80
2023-04-27T06:06:33.552Z,15.52
2023-04-27T06:07:10.401Z,13.05
2023-04-27T06:07:44.214Z,12.40
2023-04-27T06:08:17.292Z,16.52
2023-04-27T06:08:50.360Z,13.65
2023-04-27T06:09:23.436Z,14.13
2023-04-27T06:09:56.524Z,13.40
2023-04-27T06:10:29.787Z,14.70
2023-04-27T06:11:03.580Z,13.27
2023-04-27T06:11:37.681Z,14.18
2023-04-27T06:12:10.862Z,14.55
2023-04-27T06:12:46.398Z,12.82
2023-04-27T06:13:19.883Z,19.60
2023-04-27T06:13:53.169Z,14.73
2023-04-27T06:14:26.342Z,13.80
2023-04-27T06:14:59.613Z,13.55
2023-04-27T06:15:33.028Z,16.67
2023-04-27T06:16:06.342Z,16.15
2023-04-27T06:16:41.403Z,14.90
2023-04-27T06:17:14.780Z,12.38
2023-04-27T06:17:48.193Z,16.45
2023-04-27T06:18:21.550Z,13.25
2023-04-27T06:18:54.937Z,14.13
2023-04-27T06:19:28.211Z,12.68
2023-04-27T06:20:01.392Z,14.98
2023-04-27T06:20:34.679Z,15.07
2023-04-27T06:21:08.157Z,13.90
2023-04-27T06:21:41.366Z,12.82
2023-04-27T06:22:14.507Z,14.13
2023-04-27T06:22:47.591Z,14.63
2023-04-27T06:23:20.978Z,14.82
2023-04-27T06:23:54.355Z,12.20
2023-04-27T06:24:27.743Z,13.80
2023-04-27T06:25:01.433Z,14.20
2023-04-27T06:25:36.345Z,13.23
2023-04-27T06:26:09.621Z,17.27
2023-04-27T06:26:42.802Z,13.65
2023-04-27T06:27:16.295Z,15.90
2023-04-27T06:27:49.562Z,15.15
2023-04-27T06:28:22.741Z,14.38
2023-04-27T06:28:56.741Z,13.52
2023-04-27T06:29:30.431Z,16.15
2023-04-27T06:30:03.510Z,13.90
2023-04-27T06:30:38.220Z,16.52
2023-04-27T06:31:12.957Z,15.77
2023-04-27T06:31:46.278Z,14.18
2023-04-27T06:32:19.597Z,16.13
2023-04-27T06:32:53.021Z,14.40
2023-04-27T06:33:26.264Z,12.52
2023-04-27T06:33:59.335Z,12.60
2023-04-27T06:34:32.507Z,13.68
2023-04-27T06:35:05.996Z,13.57
2023-04-27T06:35:39.379Z,13.33
2023-04-27T06:36:12.664Z,16.13
2023-04-27T06:36:45.831Z,13.50
2023-04-27T06:37:19.217Z,13.43
2023-04-27T06:37:52.810Z,11.77
2023-04-27T06:38:25.982Z,13.25
2023-04-27T06:39:00.187Z,13.52
2023-04-27T06:39:33.366Z,11.85
2023-04-27T06:40:07.469Z,14.20
2023-04-27T06:40:40.944Z,13.82
2023-04-27T06:41:14.228Z,15.90
2023-04-27T06:41:47.216Z,12.85
2023-04-27T06:42:25.303Z,14.25
2023-04-27T06:42:59.602Z,11.93
2023-04-27T06:43:35.644Z,13.73
2023-04-27T06:44:08.612Z,13.48
2023-04-27T06:44:42.098Z,16.15
2023-04-27T06:45:15.385Z,14.85
2023-04-27T06:45:48.586Z,14.98
2023-04-27T06:46:21.877Z,15.10
2023-04-27T06:46:55.323Z,14.53
2023-04-27T06:47:28.402Z,12.88
2023-04-27T06:48:02.135Z,16.00
2023-04-27T06:48:35.474Z,17.10
2023-04-27T06:49:08.873Z,13.80
2023-04-27T06:49:41.822Z,15.27
2023-04-27T06:50:16.138Z,15.30
2023-04-27T06:50:49.107Z,14.13
2023-04-27T06:51:22.485Z,13.85
2023-04-27T06:51:55.561Z,13.63
2023-04-27T06:52:28.769Z,13.07
2023-04-27T06:53:01.919Z,14.30
2023-04-27T06:53:35.093Z,17.63
2023-04-27T06:54:08.172Z,15.02
2023-04-27T06:54:41.453Z,17.52
2023-04-27T06:55:14.420Z,14.05
2023-04-27T06:55:48.683Z,14.68
2023-04-27T06:56:22.008Z,16.52
2023-04-27T06:56:58.260Z,14.00
2023-04-27T06:57:31.642Z,14.32
2023-04-27T06:58:04.818Z,12.40
2023-04-27T06:58:38.471Z,15.32
2023-04-27T06:59:12.271Z,14.68
2023-04-27T06:59:46.091Z,16.80
2023-04-27T07:00:19.469Z,14.60
2023-04-27T07:00:52.855Z,13.73
2023-04-27T07:01:25.982Z,16.77
2023-04-27T07:01:59.365Z,15.07
2023-04-27T07:02:32.965Z,17.70
2023-04-27T07:03:06.491Z,13.02
2023-04-27T07:03:40.142Z,16.10
2023-04-27T07:04:13.713Z,13.13
2023-04-27T07:04:47.244Z,16.20
2023-04-27T07:05:20.539Z,14.25
2023-04-27T07:05:53.608Z,14.13
2023-04-27T07:06:27.401Z,14.25
2023-04-27T07:07:00.680Z,16.23
2023-04-27T07:07:34.414Z,16.08
2023-04-27T07:08:08.727Z,13.52
2023-04-27T07:08:42.573Z,13.98
2023-04-27T07:09:26.582Z,15.57
2023-04-27T07:10:00.698Z,13.95
2023-04-27T07:10:34.090Z,13.73
2023-04-27T07:11:07.565Z,16.05
2023-04-27T07:11:40.949Z,13.95
2023-04-27T07:12:14.327Z,13.70
2023-04-27T07:12:47.511Z,13.40
2023-04-27T07:13:20.485Z,14.50
2023-04-27T07:13:53.664Z,13.50
2023-04-27T07:14:26.739Z,12.95
2023-04-27T07:14:59.915Z,14.27
2023-04-27T07:15:33.299Z,12.27
2023-04-27T07:16:06.523Z,14.25